Time;durP1;ratioP1;P1;durP2;ratioP2;P2;SDS_P1;SDS_P2;PMS_P1;PMS_P2;Temp;Humidity;BMP_temperature;BMP_pressure;BME280_temperature;BME280_humidity;BME280_pressure;Samples;Min_cycle;Max_cycle;Signal;HPM_P1;HPM_P2
2021/12/21 00:02:27;;;;;;;0.20;0.20;;;;;;;-2.96;100.00;102140.47;4985517;28;20046;-81
2021/12/21 00:05:00;;;;;;;0.20;0.20;;;;;;;-2.96;100.00;102141.31;4951516;28;20421;-82
2021/12/21 00:07:28;;;;;;;0.30;0.20;;;;;;;-2.99;100.00;102138.13;4971650;28;20057;-82
2021/12/21 00:09:58;;;;;;;0.20;0.20;;;;;;;-3.03;100.00;102134.09;4972160;28;20053;-82
2021/12/21 00:12:30;;;;;;;0.20;0.20;;;;;;;-3.09;100.00;102120.41;4974223;28;20638;-83
2021/12/21 00:15:08;;;;;;;0.17;0.17;;;;;;;-2.99;100.00;102138.13;4973277;28;20396;-83
2021/12/21 00:17:54;;;;;;;0.20;0.20;;;;;;;-3.02;100.00;102141.13;4975567;28;20410;-82
2021/12/21 00:20:32;;;;;;;0.20;0.20;;;;;;;-3.06;100.00;102143.22;4973558;28;20057;-81
2021/12/21 00:26:06;;;;;;;0.10;0.10;;;;;;;-3.08;100.00;102135.41;4966764;28;20538;-81
2021/12/21 00:28:48;;;;;;;0.22;0.20;;;;;;;-3.13;100.00;102126.19;4975991;28;20050;-82
2021/12/21 00:31:22;;;;;;;0.20;0.20;;;;;;;-3.08;100.00;102123.88;4979194;28;20054;-82
2021/12/21 00:33:55;;;;;;;0.20;0.20;;;;;;;-3.00;100.00;102134.63;4973683;28;20054;-82
2021/12/21 00:36:26;;;;;;;0.20;0.20;;;;;;;-3.08;100.00;102122.09;4979307;28;20441;-82
2021/12/21 00:38:57;;;;;;;0.20;0.20;;;;;;;-3.03;100.00;102134.94;4976459;28;20513;-83
2021/12/21 00:41:27;;;;;;;0.20;0.20;;;;;;;-3.03;100.00;102132.25;4974626;28;20054;-83
2021/12/21 00:43:55;;;;;;;0.20;0.20;;;;;;;-3.18;100.00;102112.50;4991596;28;20061;-82
2021/12/21 00:46:28;;;;;;;0.10;0.10;;;;;;;-3.07;100.00;102122.91;4981347;28;20474;-82
2021/12/21 00:49:13;;;;;;;0.40;0.20;;;;;;;-3.04;100.00;102124.44;4975251;28;20051;-82
2021/12/21 00:51:47;;;;;;;0.15;0.15;;;;;;;-3.04;100.00;102125.25;4975378;28;20101;-83
2021/12/21 00:54:21;;;;;;;0.20;0.20;;;;;;;-3.04;100.00;102119.94;4979873;28;20052;-83
2021/12/21 00:56:50;;;;;;;0.20;0.20;;;;;;;-3.11;100.00;102114.41;4971601;28;20061;-83
2021/12/21 00:59:23;;;;;;;0.20;0.20;;;;;;;-3.08;100.00;102124.75;4979920;28;20054;-81
2021/12/21 01:01:57;;;;;;;0.22;0.22;;;;;;;-3.16;100.00;102116.69;4972794;28;20046;-82
2021/12/21 01:04:35;;;;;;;0.30;0.30;;;;;;;-3.25;100.00;102098.97;4951902;28;20046;-81
2021/12/21 01:07:18;;;;;;;0.20;0.20;;;;;;;-3.20;100.00;102114.47;4973075;28;20073;-82
2021/12/21 01:12:50;;;;;;;0.30;0.30;;;;;;;-3.25;100.00;102109.59;4938720;28;20065;-82
2021/12/21 01:15:39;;;;;;;0.20;0.20;;;;;;;-3.28;100.00;102121.41;4980782;28;20061;-82
2021/12/21 01:18:13;;;;;;;0.20;0.20;;;;;;;-3.26;100.00;102115.91;4974161;28;20494;-83
2021/12/21 01:20:47;;;;;;;0.35;0.20;;;;;;;-3.28;100.00;102113.41;4979553;28;20058;-82
2021/12/21 01:23:52;;;;;;;0.20;0.20;;;;;;;-3.35;100.00;102098.22;4974856;28;20054;-83
2021/12/21 01:26:33;;;;;;;0.20;0.20;;;;;;;-3.27;100.00;102108.94;4971328;28;20046;-81
2021/12/21 01:29:11;;;;;;;0.20;0.20;;;;;;;-3.30;100.00;102101.22;4974405;28;20059;-84
2021/12/21 01:31:53;;;;;;;0.17;0.17;;;;;;;-3.28;100.00;102105.44;4977567;28;20041;-83
2021/12/21 01:34:38;;;;;;;0.20;0.20;;;;;;;-3.29;100.00;102102.91;4986659;28;20050;-84
2021/12/21 01:37:14;;;;;;;0.10;0.10;;;;;;;-3.40;100.00;102082.69;4983009;28;20354;-81
2021/12/21 01:40:01;;;;;;;0.20;0.20;;;;;;;-3.27;100.00;102111.59;4977119;28;20065;-83
2021/12/21 01:51:01;;;;;;;0.10;0.10;;;;;;;-3.31;100.00;102103.06;4980430;28;20792;-82
2021/12/21 01:53:36;;;;;;;0.17;0.17;;;;;;;-3.31;100.00;102097.75;4979580;28;20067;-82
2021/12/21 01:56:05;;;;;;;0.20;0.20;;;;;;;-3.34;100.00;102097.22;4978864;28;20053;-81
2021/12/21 01:58:36;;;;;;;0.20;0.20;;;;;;;-3.33;100.00;102096.22;4980970;28;20166;-82
2021/12/21 02:01:14;;;;;;;0.20;0.20;;;;;;;-3.34;100.00;102094.53;4975965;28;20064;-84
2021/12/21 02:03:48;;;;;;;0.20;0.20;;;;;;;-3.38;100.00;102101.16;4950812;28;20324;-81
2021/12/21 02:06:17;;;;;;;0.20;0.20;;;;;;;-3.36;100.00;102099.19;4980114;28;20050;-82
2021/12/21 02:08:51;;;;;;;0.20;0.20;;;;;;;-3.38;100.00;102101.16;4983085;28;20058;-81
2021/12/21 02:11:25;;;;;;;0.20;0.20;;;;;;;-3.54;100.00;102072.59;4995988;28;20864;-83
2021/12/21 02:13:53;;;;;;;0.20;0.20;;;;;;;-3.40;100.00;102092.50;4978372;28;20050;-84
2021/12/21 02:16:29;;;;;;;0.30;0.30;;;;;;;-3.59;100.00;102057.91;4977749;28;20042;-82
2021/12/21 02:19:07;;;;;;;0.30;0.30;;;;;;;-3.36;100.00;102091.22;4981503;28;20057;-83
2021/12/21 02:21:43;;;;;;;0.20;0.20;;;;;;;-3.43;100.00;102088.31;4978165;28;20077;-82
2021/12/21 02:24:21;;;;;;;0.20;0.20;;;;;;;-3.44;100.00;102087.50;4980427;28;20046;-81
2021/12/21 02:26:54;;;;;;;0.20;0.20;;;;;;;-3.51;100.00;102078.41;4979692;28;20053;-82
2021/12/21 02:29:28;;;;;;;0.25;0.25;;;;;;;-3.42;100.00;102088.16;4977121;28;20054;-83
2021/12/21 02:32:01;;;;;;;0.17;0.17;;;;;;;-3.41;100.00;102081.03;4980096;28;20062;-83
2021/12/21 02:34:30;;;;;;;0.20;0.20;;;;;;;-3.40;100.00;102079.19;4975252;28;20055;-83
2021/12/21 02:36:59;;;;;;;0.20;0.20;;;;;;;-3.43;100.00;102070.50;4976355;28;20064;-84
2021/12/21 02:39:33;;;;;;;0.20;0.20;;;;;;;-3.34;100.00;102081.22;4979237;28;20062;-82
2021/12/21 02:42:07;;;;;;;0.20;0.20;;;;;;;-3.35;100.00;102075.09;4977767;28;20419;-82
2021/12/21 02:44:40;;;;;;;0.20;0.20;;;;;;;-3.36;100.00;102073.41;4975986;28;20058;-83
2021/12/21 02:47:13;;;;;;;0.28;0.28;;;;;;;-3.36;100.00;102072.56;4977885;28;20477;-84
2021/12/21 02:49:47;;;;;;;0.20;0.20;;;;;;;-3.38;100.00;102071.88;4980020;28;20604;-83
2021/12/21 02:52:16;;;;;;;0.20;0.20;;;;;;;-3.38;100.00;102069.22;4979205;28;20050;-81
2021/12/21 02:54:44;;;;;;;0.20;0.20;;;;;;;-3.36;100.00;102067.25;4981110;28;20058;-82
2021/12/21 02:57:18;;;;;;;0.20;0.20;;;;;;;-3.35;100.00;102066.28;4978629;28;20058;-83
2021/12/21 02:59:46;;;;;;;0.28;0.28;;;;;;;-3.43;100.00;102062.53;4982939;28;20053;-83
2021/12/21 03:02:19;;;;;;;0.20;0.20;;;;;;;-3.43;100.00;102072.34;4981458;28;20053;-82
2021/12/21 03:04:49;;;;;;;0.10;0.10;;;;;;;-3.48;100.00;102069.31;4953890;28;20287;-81
2021/12/21 03:08:06;;;;;;;0.20;0.20;;;;;;;-3.46;100.00;102064.69;4976412;28;20041;-83
2021/12/21 03:10:30;;;;;;;0.20;0.20;;;;;;;-3.51;100.00;102073.09;4994538;28;20057;-81
2021/12/21 03:15:49;;;;;;;0.20;0.20;;;;;;;-3.54;100.00;102076.06;4986591;28;20054;-83
2021/12/21 03:18:22;;;;;;;0.20;0.20;;;;;;;-3.68;100.00;102050.81;4985270;28;21195;-83
2021/12/21 03:20:56;;;;;;;0.20;0.20;;;;;;;-3.51;100.00;102075.75;4990049;28;20069;-82
2021/12/21 03:23:30;;;;;;;0.20;0.20;;;;;;;-3.49;100.00;102071.13;4986911;28;20065;-82
2021/12/21 03:26:03;;;;;;;0.10;0.10;;;;;;;-3.56;100.00;102054.13;4986951;28;20062;-81
2021/12/21 03:28:37;;;;;;;0.25;0.25;;;;;;;-3.51;100.00;102062.44;4984600;28;21421;-82
2021/12/21 03:31:11;;;;;;;0.17;0.17;;;;;;;-3.53;100.00;102061.78;4984503;28;20057;-82
2021/12/21 03:33:44;;;;;;;0.10;0.10;;;;;;;-3.53;100.00;102060.97;4987238;28;20073;-82
2021/12/21 03:36:19;;;;;;;0.20;0.20;;;;;;;-3.54;100.00;102060.09;4988657;28;20064;-84
2021/12/21 03:38:58;;;;;;;0.20;0.20;;;;;;;-3.55;100.00;102060.25;4989522;28;20053;-82
2021/12/21 03:41:32;;;;;;;0.10;0.10;;;;;;;-3.59;100.00;102059.72;4986246;28;20058;-81
2021/12/21 03:44:08;;;;;;;0.20;0.20;;;;;;;-3.60;100.00;102052.75;4985874;28;20050;-82
2021/12/21 03:46:43;;;;;;;0.20;0.20;;;;;;;-3.63;100.00;102058.38;4987663;28;20065;-83
2021/12/21 03:49:51;;;;;;;0.20;0.20;;;;;;;-3.68;100.00;102061.47;4999271;28;20069;-83
2021/12/21 03:52:26;;;;;;;0.17;0.17;;;;;;;-3.69;100.00;102056.31;5007275;28;20518;-82
2021/12/21 03:55:02;;;;;;;0.20;0.20;;;;;;;-3.77;100.00;102041.09;4989611;28;20061;-83
2021/12/21 03:57:31;;;;;;;0.30;0.30;;;;;;;-3.87;100.00;102027.88;4989625;28;20061;-82
2021/12/21 04:00:09;;;;;;;0.20;0.20;;;;;;;-3.75;100.00;102055.09;4995519;28;20049;-82
2021/12/21 04:02:42;;;;;;;;;;;;;;;-3.79;100.00;102051.06;4990386;28;20509;-83
2021/12/21 04:05:16;;;;;;;0.20;0.20;;;;;;;-3.74;100.00;102050.59;4961551;28;19921;-84
2021/12/21 04:07:49;;;;;;;0.20;0.20;;;;;;;-3.75;100.00;102055.09;4984346;28;20038;-81
2021/12/21 04:10:23;;;;;;;0.22;0.22;;;;;;;-3.74;100.00;102053.25;4984955;28;20062;-83
2021/12/21 04:12:57;;;;;;;0.20;0.20;;;;;;;-3.84;100.00;102040.88;4984465;28;20474;-82
2021/12/21 04:15:34;;;;;;;0.20;0.20;;;;;;;-3.74;100.00;102055.91;4983861;28;20069;-82
2021/12/21 04:18:02;;;;;;;0.25;0.25;;;;;;;-3.72;100.00;102053.97;4986268;28;20050;-81
2021/12/21 04:20:30;;;;;;;0.10;0.10;;;;;;;-3.89;100.00;102024.53;4997698;28;20058;-84
2021/12/21 04:23:04;;;;;;;0.20;0.20;;;;;;;-3.71;100.00;102052.97;5009146;28;20065;-82
2021/12/21 04:25:38;;;;;;;0.28;0.28;;;;;;;-3.70;100.00;102058.16;4990345;28;20081;-83
2021/12/21 04:28:11;;;;;;;0.20;0.20;;;;;;;-3.77;100.00;102041.09;4989178;28;20629;-82
2021/12/21 04:30:45;;;;;;;0.20;0.20;;;;;;;-3.70;100.00;102054.63;4990544;28;20049;-82
2021/12/21 04:33:18;;;;;;;0.20;0.20;;;;;;;-3.71;100.00;102048.47;4991812;28;20057;-82
2021/12/21 04:35:46;;;;;;;0.20;0.20;;;;;;;-3.71;100.00;102050.31;4989637;28;20065;-81
2021/12/21 04:38:21;;;;;;;0.20;0.20;;;;;;;-3.80;100.00;102039.59;4989382;28;20042;-81
2021/12/21 04:41:03;;;;;;;0.20;0.20;;;;;;;-3.77;100.00;102051.72;4989851;28;20043;-82
2021/12/21 04:43:31;;;;;;;0.20;0.20;;;;;;;-3.77;100.00;102047.25;4990102;28;20097;-82
2021/12/21 04:46:05;;;;;;;0.20;0.20;;;;;;;-3.89;100.00;102036.97;4986896;28;20050;-82
2021/12/21 04:48:39;;;;;;;0.20;0.20;;;;;;;-3.80;100.00;102044.06;4988791;28;20050;-84
2021/12/21 04:51:07;;;;;;;0.20;0.20;;;;;;;-3.87;100.00;102033.19;4991592;28;20061;-82
2021/12/21 04:53:40;;;;;;;0.20;0.20;;;;;;;-3.83;100.00;102042.53;4987081;28;20050;-83
2021/12/21 04:56:15;;;;;;;0.40;0.30;;;;;;;-3.79;100.00;102049.22;4990514;28;20778;-82
2021/12/21 04:58:43;;;;;;;0.47;0.20;;;;;;;-3.78;100.00;102036.78;4986811;28;20054;-82
2021/12/21 05:01:17;;;;;;;0.20;0.20;;;;;;;-3.77;100.00;102044.59;4987014;28;20058;-81
2021/12/21 05:03:45;;;;;;;0.32;0.20;;;;;;;-3.76;100.00;102042.78;4959823;28;20597;-82
2021/12/21 05:06:19;;;;;;;0.30;0.30;;;;;;;-3.80;100.00;102033.41;4991777;28;20046;-81
2021/12/21 05:08:53;;;;;;;0.10;0.10;;;;;;;-3.77;100.00;102044.59;4991156;28;20053;-83
2021/12/21 05:11:32;;;;;;;0.20;0.20;;;;;;;-3.82;100.00;102044.22;4992346;28;20058;-83
2021/12/21 05:14:01;;;;;;;0.25;0.25;;;;;;;-3.87;100.00;102030.53;4987151;28;20057;-82
2021/12/21 05:16:34;;;;;;;0.30;0.30;;;;;;;-3.96;100.00;102026.94;4981197;28;20073;-82
2021/12/21 05:19:07;;;;;;;0.20;0.20;;;;;;;-3.90;100.00;102043.31;4979434;28;20084;-83
2021/12/21 05:21:40;;;;;;;0.20;0.20;;;;;;;-3.86;100.00;102052.66;4980062;28;20069;-82
2021/12/21 05:24:13;;;;;;;0.20;0.20;;;;;;;-4.04;100.00;102026.03;4981575;28;20234;-82
2021/12/21 05:26:48;;;;;;;0.20;0.20;;;;;;;-3.91;100.00;102050.44;4979206;28;20709;-82
2021/12/21 05:29:22;;;;;;;0.20;0.20;;;;;;;-4.04;100.00;102034.84;4978871;28;20058;-82
2021/12/21 05:31:50;;;;;;;0.20;0.20;;;;;;;-3.88;100.00;102058.13;4975397;28;20054;-82
2021/12/21 05:34:23;;;;;;;0.15;0.15;;;;;;;-4.13;100.00;102017.97;4976107;28;20058;-83
2021/12/21 05:36:51;;;;;;;0.20;0.20;;;;;;;-3.89;100.00;102052.94;4986230;28;20061;-83
2021/12/21 05:39:27;;;;;;;0.20;0.20;;;;;;;-3.98;100.00;102041.38;4982861;28;20057;-84
2021/12/21 05:42:03;;;;;;;0.20;0.20;;;;;;;-3.93;100.00;102049.75;4980617;28;20050;-83
2021/12/21 05:44:37;;;;;;;0.20;0.20;;;;;;;-3.96;100.00;102050.06;4977262;28;20064;-82
2021/12/21 05:47:11;;;;;;;0.30;0.30;;;;;;;-4.00;100.00;102054.00;4978315;28;20061;-82
2021/12/21 05:49:44;;;;;;;0.20;0.20;;;;;;;-4.01;100.00;102054.97;4979928;28;20537;-82
2021/12/21 05:52:17;;;;;;;0.20;0.20;;;;;;;-4.02;100.00;102061.28;4978142;28;20054;-81
2021/12/21 05:54:50;;;;;;;0.20;0.20;;;;;;;-4.00;100.00;102054.00;4980153;28;20054;-83
2021/12/21 05:57:25;;;;;;;0.20;0.20;;;;;;;-4.01;100.00;102069.09;4981923;28;20061;-82
2021/12/21 05:59:58;;;;;;;0.20;0.20;;;;;;;-4.20;100.00;102032.00;4979344;28;20053;-81
2021/12/21 06:02:27;;;;;;;0.20;0.20;;;;;;;-4.03;100.00;102065.78;4979860;28;20222;-82
2021/12/21 06:05:00;;;;;;;0.20;0.20;;;;;;;-4.06;100.00;102059.91;4955701;28;20572;-82
2021/12/21 06:07:33;;;;;;;0.20;0.20;;;;;;;-4.18;100.00;102043.34;4981597;28;20069;-82
2021/12/21 06:10:13;;;;;;;0.35;0.30;;;;;;;-4.06;100.00;102052.78;4977591;28;20628;-83
2021/12/21 06:13:09;;;;;;;0.22;0.22;;;;;;;-4.13;100.00;102052.53;4982625;28;20503;-82
2021/12/21 06:15:52;;;;;;;0.20;0.20;;;;;;;-4.16;100.00;102052.00;4978236;28;20046;-82
2021/12/21 06:27:02;;;;;;;0.20;0.20;;;;;;;-4.11;100.00;102060.38;4979110;28;20273;-82
2021/12/21 06:29:37;;;;;;;0.10;0.10;;;;;;;-4.16;100.00;102054.66;4978676;28;20730;-84
2021/12/21 06:32:11;;;;;;;0.10;0.10;;;;;;;-4.16;100.00;102059.97;4976230;28;20060;-81
2021/12/21 06:34:45;;;;;;;0.20;0.20;;;;;;;-4.18;100.00;102056.63;4982830;28;20058;-82
2021/12/21 06:37:13;;;;;;;0.10;0.10;;;;;;;-4.17;100.00;102047.66;4981603;28;20054;-82
2021/12/21 06:39:42;;;;;;;0.20;0.20;;;;;;;-4.24;100.00;102035.94;4979643;28;20058;-82
2021/12/21 06:42:16;;;;;;;0.10;0.10;;;;;;;-4.30;100.00;102026.75;4980153;28;20057;-82
2021/12/21 06:44:53;;;;;;;0.10;0.10;;;;;;;-4.16;100.00;102057.31;4977212;28;20434;-82
2021/12/21 06:53:02;;;;;;;0.20;0.20;;;;;;;-4.22;100.00;102053.41;4977790;28;20631;-82
2021/12/21 06:55:36;;;;;;;0.30;0.30;;;;;;;-4.21;100.00;102043.63;4979536;28;20529;-82
2021/12/21 06:58:09;;;;;;;0.28;0.28;;;;;;;-4.21;100.00;102049.78;4973763;28;20059;-81
2021/12/21 07:00:40;;;;;;;0.20;0.20;;;;;;;-4.22;100.00;102053.41;4979276;28;20062;-81
2021/12/21 07:03:14;;;;;;;0.20;0.20;;;;;;;-4.21;100.00;102054.25;4978283;28;20052;-82
2021/12/21 07:05:48;;;;;;;0.20;0.20;;;;;;;-4.23;100.00;102059.72;4970689;28;20518;-82
2021/12/21 07:08:26;;;;;;;0.20;0.20;;;;;;;-4.30;100.00;102048.00;4979379;28;20057;-83
2021/12/21 07:11:05;;;;;;;0.20;0.20;;;;;;;-4.32;100.00;102040.19;4979218;28;20053;-84
2021/12/21 07:19:22;;;;;;;0.20;0.20;;;;;;;-4.30;100.00;102062.13;4975243;28;20053;-83
2021/12/21 07:21:56;;;;;;;0.10;0.10;;;;;;;-4.34;100.00;102060.75;4979991;28;20053;-82
2021/12/21 07:24:29;;;;;;;0.20;0.20;;;;;;;-4.34;100.00;102057.25;4983058;28;20064;-82
2021/12/21 07:26:58;;;;;;;0.17;0.17;;;;;;;-4.39;100.00;102063.03;4981786;28;20077;-81
2021/12/21 07:29:31;;;;;;;0.10;0.10;;;;;;;-4.41;100.00;102070.28;4980762;28;20054;-82
2021/12/21 07:32:06;;;;;;;0.10;0.10;;;;;;;-4.39;100.00;102063.03;4978520;28;20046;-81
2021/12/21 07:34:40;;;;;;;0.20;0.20;;;;;;;-4.48;100.00;102048.78;4977252;28;20710;-84
2021/12/21 07:37:09;;;;;;;0.25;0.25;;;;;;;-4.40;100.00;102071.97;4975996;28;21185;-82
2021/12/21 07:39:43;;;;;;;0.20;0.20;;;;;;;-4.38;100.00;102072.66;4977594;28;20054;-81
2021/12/21 07:42:16;;;;;;;0.20;0.20;;;;;;;-4.44;100.00;102068.75;4976916;28;20081;-82
2021/12/21 07:44:49;;;;;;;0.30;0.30;;;;;;;-4.38;100.00;102067.34;4974605;28;20066;-83
2021/12/21 07:47:24;;;;;;;0.20;0.20;;;;;;;-4.37;100.00;102073.50;4974235;28;20072;-83
2021/12/21 07:49:57;;;;;;;0.20;0.20;;;;;;;-4.38;100.00;102072.66;4973935;28;20053;-83
2021/12/21 07:52:31;;;;;;;0.20;0.20;;;;;;;-4.37;100.00;102061.03;4975586;28;20063;-83
2021/12/21 07:54:59;;;;;;;0.20;0.20;;;;;;;-4.35;100.00;102066.22;4975770;28;20056;-85
2021/12/21 07:57:33;;;;;;;0.20;0.20;;;;;;;-4.29;100.00;102071.78;4975833;28;20058;-83
2021/12/21 08:00:03;;;;;;;0.10;0.10;;;;;;;-4.23;100.00;102074.84;4977893;28;20054;-82
2021/12/21 08:02:45;;;;;;;0.20;0.20;;;;;;;-4.18;100.00;102068.09;4972933;28;20046;-83
2021/12/21 08:05:19;;;;;;;0.20;0.20;;;;;;;-4.16;100.00;102070.59;4949459;28;20278;-83
2021/12/21 08:07:57;;;;;;;0.20;0.20;;;;;;;-4.13;100.00;102065.84;4976442;28;20058;-83
2021/12/21 08:10:29;;;;;;;0.20;0.20;;;;;;;-4.14;100.00;102061.50;4969152;28;20062;-81
2021/12/21 08:13:02;;;;;;;0.20;0.20;;;;;;;-4.02;100.00;102072.78;4978597;28;20685;-82
2021/12/21 08:15:36;;;;;;;0.20;0.20;;;;;;;-3.88;100.00;102065.25;4971833;28;20053;-82
2021/12/21 08:18:05;;;;;;;0.20;0.20;;;;;;;-3.87;100.00;102062.44;4976016;28;20049;-83
2021/12/21 08:20:38;;;;;;;0.28;0.28;;;;;;;-3.82;100.00;102075.31;4972452;28;20391;-82
2021/12/21 08:23:07;;;;;;;0.20;0.20;;;;;;;-3.86;100.00;102065.97;4975980;28;20050;-85
2021/12/21 08:25:40;;;;;;;0.20;0.20;;;;;;;-4.00;100.00;102041.53;4979585;28;20050;-82
2021/12/21 08:28:08;;;;;;;0.20;0.20;;;;;;;-3.70;100.00;102076.78;4981195;28;20058;-83
2021/12/21 08:30:41;;;;;;;0.52;0.20;;;;;;;-3.68;100.00;102076.63;4974732;28;20600;-81
2021/12/21 08:33:16;;;;;;;0.20;0.20;;;;;;;-3.70;100.00;102083.88;4970508;28;20069;-82
2021/12/21 08:35:50;;;;;;;0.13;0.13;;;;;;;-3.71;100.00;102079.59;4973371;28;20491;-83
2021/12/21 08:38:23;;;;;;;0.20;0.20;;;;;;;-3.62;100.00;102081.31;4980347;28;20054;-82
2021/12/21 08:40:58;;;;;;;0.20;0.20;;;;;;;-3.61;100.00;102070.50;4967773;28;20046;-82
2021/12/21 08:43:32;;;;;;;0.20;0.20;;;;;;;-3.56;100.00;102074.53;4973289;28;20421;-83
2021/12/21 08:46:01;;;;;;;0.25;0.25;;;;;;;-3.53;100.00;102076.94;4972479;28;20128;-82
2021/12/21 08:48:31;;;;;;;0.20;0.20;;;;;;;-3.54;100.00;102070.75;4979084;28;20049;-83
2021/12/21 08:51:05;;;;;;;0.20;0.20;;;;;;;-3.47;100.00;102063.81;4976092;28;20061;-83
2021/12/21 08:53:42;;;;;;;0.30;0.25;;;;;;;-3.47;100.00;102066.47;4974951;28;20062;-83
2021/12/21 08:56:16;;;;;;;0.20;0.20;;;;;;;-3.47;100.00;102070.97;4975696;28;20302;-82
2021/12/21 08:58:49;;;;;;;0.20;0.20;;;;;;;-3.43;100.00;102075.00;4975569;28;20525;-82
2021/12/21 09:01:22;;;;;;;0.20;0.20;;;;;;;-3.34;100.00;102070.59;4973032;28;20054;-83
2021/12/21 09:03:53;;;;;;;0.30;0.30;;;;;;;-3.31;100.00;102062.31;4951777;28;20106;-82
2021/12/21 09:06:26;;;;;;;0.20;0.20;;;;;;;-3.26;100.00;102063.53;4970613;28;20058;-83
2021/12/21 09:09:00;;;;;;;0.20;0.20;;;;;;;-3.23;100.00;102070.38;4971055;28;20050;-83
2021/12/21 09:11:35;;;;;;;0.20;0.20;;;;;;;-3.20;100.00;102087.84;4973686;28;20070;-84
2021/12/21 09:14:08;;;;;;;0.15;0.15;;;;;;;-3.11;100.00;102076.28;4967404;28;20050;-85
2021/12/21 09:16:41;;;;;;;0.20;0.20;;;;;;;-3.14;100.00;102076.59;4968867;28;20058;-83
2021/12/21 09:19:16;;;;;;;0.20;0.20;;;;;;;-3.04;100.00;102084.47;4981856;28;20050;-84
2021/12/21 09:21:50;;;;;;;0.20;0.20;;;;;;;-3.05;100.00;102065.00;4970076;28;20050;-83
2021/12/21 09:24:23;;;;;;;0.30;0.30;;;;;;;-2.83;100.00;102074.31;4969943;28;20061;-83
2021/12/21 09:26:56;;;;;;;0.20;0.20;;;;;;;-2.79;100.00;102083.69;4976183;28;20144;-84
2021/12/21 09:29:24;;;;;;;0.13;0.13;;;;;;;-2.82;100.00;102078.63;4973199;28;20057;-83
2021/12/21 09:31:57;;;;;;;0.20;0.20;;;;;;;-2.67;100.00;102086.06;4968702;28;20274;-84
2021/12/21 09:34:32;;;;;;;0.20;0.20;;;;;;;-2.66;100.00;102085.91;4972894;28;20546;-84
2021/12/21 09:37:06;;;;;;;0.20;0.20;;;;;;;-2.66;100.00;102085.91;4968287;28;20585;-83
2021/12/21 09:39:34;;;;;;;0.20;0.20;;;;;;;-2.75;100.00;102079.69;4964687;28;20066;-84
2021/12/21 09:42:08;;;;;;;0.20;0.20;;;;;;;-2.62;100.00;102091.78;4963299;28;20054;-83
2021/12/21 09:44:36;;;;;;;0.20;0.20;;;;;;;-2.89;100.00;102042.97;4969630;28;20058;-82
2021/12/21 09:47:10;;;;;;;0.20;0.20;;;;;;;-2.67;100.00;102089.56;4970548;28;20057;-82
2021/12/21 09:49:47;;;;;;;0.20;0.20;;;;;;;-2.71;100.00;102090.88;4968696;28;20050;-83
2021/12/21 09:52:23;;;;;;;0.20;0.20;;;;;;;-2.74;100.00;102099.19;4971986;28;20058;-83
2021/12/21 09:54:56;;;;;;;0.10;0.10;;;;;;;-2.81;100.00;102096.31;4969232;28;21278;-84
2021/12/21 09:57:30;;;;;;;0.20;0.20;;;;;;;-2.81;100.00;102104.28;4965872;28;20446;-82
2021/12/21 10:00:07;;;;;;;0.20;0.20;;;;;;;-2.78;100.00;102105.81;4973854;28;20057;-84
2021/12/21 10:02:41;;;;;;;0.20;0.20;;;;;;;-2.76;100.00;102101.19;4987798;28;20046;-81
2021/12/21 10:05:20;;;;;;;0.20;0.20;;;;;;;-2.74;100.00;102105.34;4962840;28;20062;-82
2021/12/21 10:07:58;;;;;;;0.15;0.15;;;;;;;-2.80;100.00;102082.00;4983052;28;20479;-83
2021/12/21 10:10:34;;;;;;;0.20;0.20;;;;;;;-2.65;100.00;102095.59;4985242;28;20050;-82
2021/12/21 10:13:11;;;;;;;0.20;0.20;;;;;;;-2.50;100.00;102105.66;4969929;28;20050;-84
2021/12/21 10:15:46;;;;;;;0.20;0.20;;;;;;;-2.43;100.00;102102.22;4965877;28;20680;-83
2021/12/21 10:18:23;;;;;;;0.10;0.10;;;;;;;-2.36;100.00;102102.41;4967074;28;20053;-81
2021/12/21 10:20:59;;;;;;;;;;;;;;;-2.36;100.00;102101.56;4966485;28;20045;-84
2021/12/21 10:23:34;;;;;;;0.20;0.20;;;;;;;-2.35;100.00;102100.56;4971434;28;19929;-83
2021/12/21 10:26:10;;;;;;;0.45;0.32;;;;;;;-2.40;100.00;102096.56;4971753;28;20430;-82
2021/12/21 10:28:45;;;;;;;0.20;0.20;;;;;;;-2.50;100.00;102087.00;4976853;28;20058;-84
2021/12/21 10:31:25;;;;;;;0.30;0.30;;;;;;;-2.44;100.00;102095.19;4965767;28;20198;-83
2021/12/21 10:33:57;;;;;;;0.20;0.20;;;;;;;-2.56;100.00;102083.13;4969694;28;20063;-83
2021/12/21 10:36:32;;;;;;;0.20;0.20;;;;;;;-2.50;100.00;102095.84;4970708;28;20430;-83
2021/12/21 10:39:02;;;;;;;0.40;0.30;;;;;;;-2.52;100.00;102103.16;4971072;28;20081;-81
2021/12/21 10:41:39;;;;;;;0.30;0.30;;;;;;;-2.54;100.00;102107.81;4971524;28;20353;-82
2021/12/21 10:44:14;;;;;;;0.13;0.13;;;;;;;-2.60;100.00;102103.91;4968642;28;20069;-85
2021/12/21 10:46:50;;;;;;;0.22;0.22;;;;;;;-2.59;100.00;102100.28;4967017;28;20361;-82
2021/12/21 10:49:25;;;;;;;0.40;0.32;;;;;;;-2.59;100.00;102099.44;4977534;28;20069;-81
2021/12/21 10:52:04;;;;;;;0.20;0.20;;;;;;;-2.61;100.00;102096.94;4985663;28;20064;-83
2021/12/21 10:54:40;;;;;;;0.20;0.20;;;;;;;-2.58;100.00;102093.94;4980625;28;20054;-83
2021/12/21 10:57:17;;;;;;;0.20;0.20;;;;;;;-2.50;100.00;102084.31;4964463;28;21018;-84
2021/12/21 10:59:54;;;;;;;0.20;0.20;;;;;;;-2.53;100.00;102085.47;4981844;28;20061;-80
2021/12/21 11:02:31;;;;;;;0.30;0.30;;;;;;;-2.40;100.00;102093.06;4984008;28;20049;-80
2021/12/21 11:05:01;;;;;;;0.30;0.30;;;;;;;-2.40;100.00;102091.22;4953149;28;20640;-82
2021/12/21 11:07:42;;;;;;;0.22;0.22;;;;;;;-2.37;100.00;102094.56;4972713;28;20061;-82
2021/12/21 11:10:14;;;;;;;0.10;0.10;;;;;;;-2.33;100.00;102090.59;4966024;28;21068;-83
2021/12/21 11:12:50;;;;;;;0.20;0.20;;;;;;;-2.29;100.00;102090.09;4983558;28;20478;-82
2021/12/21 11:15:20;;;;;;;0.30;0.30;;;;;;;-2.25;100.00;102083.47;4983484;28;20316;-81
2021/12/21 11:17:49;;;;;;;0.25;0.25;;;;;;;-2.23;100.00;102072.63;4989792;28;20054;-80
2021/12/21 11:20:23;;;;;;;0.30;0.30;;;;;;;-2.17;100.00;102077.31;4986483;28;20059;-81
2021/12/21 11:22:58;;;;;;;0.20;0.20;;;;;;;-2.06;100.00;102070.84;4989342;28;20053;-79
2021/12/21 11:25:32;;;;;;;0.20;0.20;;;;;;;-2.02;100.00;102068.69;4986893;28;20058;-79
2021/12/21 11:28:06;;;;;;;0.30;0.30;;;;;;;-1.95;100.00;102069.72;4983961;28;20057;-82
2021/12/21 11:30:41;;;;;;;0.20;0.20;;;;;;;-2.00;100.00;102059.53;4982949;28;20069;-81
2021/12/21 11:33:17;;;;;;;0.20;0.20;;;;;;;-1.95;100.00;102049.19;4983814;28;20043;-79
2021/12/21 11:38:45;;;;;;;0.20;0.20;;;;;;;-1.76;100.00;102057.94;4977600;28;20057;-80
2021/12/21 11:41:16;;;;;;;0.20;0.20;;;;;;;-1.74;100.00;102063.91;4983610;28;20097;-81
2021/12/21 11:43:52;;;;;;;0.20;0.20;;;;;;;-1.69;100.00;102056.25;4985599;28;20053;-83
2021/12/21 11:46:32;;;;;;;0.20;0.20;;;;;;;-1.68;100.00;102052.59;4999762;28;20077;-80
2021/12/21 11:49:12;;;;;;;0.30;0.30;;;;;;;-1.66;100.00;102039.09;5003979;28;20058;-80
2021/12/21 11:51:45;;;;;;;0.30;0.30;;;;;;;-1.63;100.00;102046.75;4997960;28;20054;-83
2021/12/21 11:54:22;;;;;;;0.30;0.30;;;;;;;-1.51;100.00;102040.09;4986908;28;21245;-80
2021/12/21 11:57:02;;;;;;;0.30;0.30;;;;;;;-1.50;100.00;102038.28;4988717;28;20061;-81
2021/12/21 11:59:35;;;;;;;0.20;0.20;;;;;;;-1.44;100.00;102040.28;4989370;28;20061;-83
2021/12/21 12:02:08;;;;;;;0.20;0.20;;;;;;;-1.43;100.00;102033.94;4987364;28;20050;-80
2021/12/21 12:04:37;;;;;;;0.20;0.20;;;;;;;-1.46;100.00;102039.63;4962370;28;20076;-81
2021/12/21 12:07:19;;;;;;;0.20;0.20;;;;;;;-1.53;100.00;102026.09;4967628;28;20498;-82
2021/12/21 12:10:11;;;;;;;0.20;0.20;;;;;;;-1.43;100.00;102028.59;4978028;28;20430;-83
2021/12/21 12:12:40;;;;;;;0.20;0.20;;;;;;;-1.41;100.00;102024.75;4972453;28;20045;-83
2021/12/21 12:15:17;;;;;;;0.20;0.20;;;;;;;-1.49;100.00;102014.09;4970538;28;20514;-81
2021/12/21 12:17:52;;;;;;;0.20;0.20;;;;;;;-1.45;100.00;102023.44;4967931;28;20062;-83
2021/12/21 12:20:28;;;;;;;0.20;0.20;;;;;;;-1.44;100.00;102021.59;4967016;28;20054;-82
2021/12/21 12:23:06;;;;;;;0.30;0.30;;;;;;;-1.41;100.00;102008.75;4972006;28;20473;-80
2021/12/21 12:25:50;;;;;;;0.20;0.20;;;;;;;-1.36;100.00;102013.56;4965708;28;20447;-82
2021/12/21 12:28:28;;;;;;;0.25;0.25;;;;;;;-1.31;100.00;102005.91;4967876;28;20050;-82
2021/12/21 12:30:56;;;;;;;0.28;0.28;;;;;;;-1.35;100.00;101993.88;4969116;28;20158;-83